createdAt,value
2023-04-10T00:01:51.596Z,99.90
2023-04-10T00:04:23.509Z,99.90
2023-04-10T00:06:55.180Z,99.90
2023-04-10T00:09:26.514Z,99.90
2023-04-10T00:11:57.494Z,99.90
2023-04-10T00:14:28.554Z,99.90
2023-04-10T00:16:59.499Z,99.90
2023-04-10T00:19:30.976Z,99.90
2023-04-10T00:22:02.184Z,99.90
2023-04-10T00:24:33.136Z,99.90
2023-04-10T00:27:04.036Z,99.90
2023-04-10T00:29:34.957Z,99.90
2023-04-10T00:32:05.898Z,99.90
2023-04-10T00:34:36.859Z,99.90
2023-04-10T00:37:08.024Z,99.90
2023-04-10T00:39:38.898Z,99.90
2023-04-10T00:42:10.117Z,99.90
2023-04-10T00:44:41.519Z,99.90
2023-04-10T00:47:14.266Z,99.90
2023-04-10T00:49:45.404Z,99.90
2023-04-10T00:52:16.592Z,99.90
2023-04-10T00:54:47.716Z,99.90
2023-04-10T00:57:18.650Z,99.90
2023-04-10T00:59:52.123Z,99.90
2023-04-10T01:02:23.131Z,99.90
2023-04-10T01:04:54.218Z,99.90
2023-04-10T01:08:12.707Z,99.90
2023-04-10T01:11:02.064Z,99.90
2023-04-10T01:14:05.700Z,99.90
2023-04-10T01:17:02.289Z,99.90
2023-04-10T01:19:55.414Z,99.90
2023-04-10T01:22:35.781Z,99.90
2023-04-10T01:25:35.655Z,99.90
2023-04-10T01:28:47.136Z,99.90
2023-04-10T01:31:30.711Z,99.90
2023-04-10T01:34:09.989Z,99.90
2023-04-10T01:36:52.161Z,99.90
2023-04-10T01:39:25.344Z,99.90
2023-04-10T01:41:59.947Z,99.90
2023-04-10T01:44:32.735Z,99.90
2023-04-10T01:47:07.230Z,99.90
2023-04-10T01:49:45.123Z,99.90
2023-04-10T01:52:16.718Z,99.90
2023-04-10T01:54:49.088Z,99.90
2023-04-10T01:57:20.875Z,99.90
2023-04-10T01:59:51.759Z,99.90
2023-04-10T02:02:22.849Z,99.90
2023-04-10T02:04:53.830Z,99.90
2023-04-10T02:07:37.907Z,99.90
2023-04-10T02:10:16.677Z,99.90
2023-04-10T02:13:05.774Z,99.90
2023-04-10T02:15:42.925Z,99.90
2023-04-10T02:18:17.983Z,99.90
2023-04-10T02:20:49.507Z,99.90
2023-04-10T02:23:21.128Z,99.90
2023-04-10T02:25:52.051Z,99.90
2023-04-10T02:28:23.140Z,99.90
2023-04-10T02:30:54.041Z,99.90
2023-04-10T02:33:24.985Z,99.90
2023-04-10T02:35:55.916Z,99.90
2023-04-10T02:38:27.637Z,99.90
2023-04-10T02:40:58.561Z,99.90
2023-04-10T02:43:29.739Z,99.90
2023-04-10T02:46:00.650Z,99.90
2023-04-10T02:48:31.518Z,99.90
2023-04-10T02:51:02.412Z,99.90
2023-04-10T02:53:34.423Z,99.90
2023-04-10T02:56:09.220Z,99.90
2023-04-10T02:58:40.131Z,99.90
2023-04-10T03:01:11.114Z,99.90
2023-04-10T03:03:42.233Z,99.90
2023-04-10T03:06:13.138Z,99.90
2023-04-10T03:08:44.075Z,99.90
2023-04-10T03:11:14.930Z,99.90
2023-04-10T03:13:45.949Z,99.90
2023-04-10T03:16:18.746Z,99.90
2023-04-10T03:18:50.053Z,99.90
2023-04-10T03:21:21.563Z,99.90
2023-04-10T03:23:52.551Z,99.90
2023-04-10T03:26:24.196Z,99.90
2023-04-10T03:28:55.085Z,99.90
2023-04-10T03:31:26.173Z,99.90
2023-04-10T03:33:57.224Z,99.90
2023-04-10T03:36:28.379Z,99.90
2023-04-10T03:38:59.255Z,99.90
2023-04-10T03:41:31.028Z,99.90
2023-04-10T03:44:03.331Z,99.90
2023-04-10T03:46:34.202Z,99.90
2023-04-10T03:49:05.367Z,99.90
2023-04-10T03:51:36.621Z,99.90
2023-04-10T03:54:07.471Z,99.90
2023-04-10T03:56:38.320Z,99.90
2023-04-10T03:59:09.208Z,99.90
2023-04-10T04:01:40.212Z,99.90
2023-04-10T04:04:11.441Z,99.90
2023-04-10T04:06:42.522Z,99.90
2023-04-10T04:09:13.392Z,99.90
2023-04-10T04:11:44.221Z,99.90
2023-04-10T04:14:15.281Z,99.90
2023-04-10T04:16:46.240Z,99.90
2023-04-10T04:19:17.167Z,99.90
2023-04-10T04:21:48.050Z,99.90
2023-04-10T04:24:18.976Z,99.90
2023-04-10T04:26:49.960Z,99.90
2023-04-10T04:29:20.849Z,99.90
2023-04-10T04:31:51.746Z,99.90
2023-04-10T04:34:22.672Z,99.90
2023-04-10T04:36:53.595Z,99.90
2023-04-10T04:39:24.579Z,99.90
2023-04-10T04:41:55.777Z,99.90
2023-04-10T04:44:26.663Z,99.90
2023-04-10T04:46:57.582Z,99.90
2023-04-10T04:49:28.466Z,99.90
2023-04-10T04:51:59.305Z,99.90
2023-04-10T04:54:30.194Z,99.90
2023-04-10T04:57:01.785Z,99.90
2023-04-10T04:59:32.650Z,99.90
2023-04-10T05:02:03.762Z,99.90
2023-04-10T05:04:35.056Z,99.90
2023-04-10T05:07:06.089Z,99.90
2023-04-10T05:09:36.945Z,99.90
2023-04-10T05:12:07.765Z,99.90
2023-04-10T05:14:38.650Z,99.90
2023-04-10T05:17:09.517Z,99.90
2023-04-10T05:19:40.401Z,99.90
2023-04-10T05:22:11.296Z,99.90
2023-04-10T05:24:42.194Z,99.90
2023-04-10T05:27:13.075Z,99.90
2023-04-10T05:29:43.995Z,99.90
2023-04-10T05:32:15.383Z,99.90
2023-04-10T05:34:46.444Z,99.90
2023-04-10T05:37:17.329Z,99.90
2023-04-10T05:39:48.196Z,99.90
2023-04-10T05:42:19.070Z,99.90
2023-04-10T05:44:50.905Z,99.90
2023-04-10T05:47:21.807Z,99.90
2023-04-10T05:49:52.687Z,99.90
2023-04-10T05:52:23.546Z,99.90
2023-04-10T05:54:54.434Z,99.90
2023-04-10T05:57:25.935Z,99.90
2023-04-10T05:59:56.855Z,99.90
2023-04-10T06:02:28.233Z,99.90
2023-04-10T06:04:59.358Z,99.90
2023-04-10T06:07:30.195Z,99.90
2023-04-10T06:10:01.224Z,99.90
2023-04-10T06:12:32.077Z,99.90
2023-04-10T06:15:03.063Z,99.90
2023-04-10T06:17:33.919Z,99.90
2023-04-10T06:20:05.518Z,99.90
2023-04-10T06:22:36.406Z,99.90
2023-04-10T06:25:07.628Z,99.90
2023-04-10T06:27:38.887Z,99.90
2023-04-10T06:30:10.609Z,99.90
2023-04-10T06:32:41.873Z,99.90
2023-04-10T06:35:13.220Z,99.90
2023-04-10T06:37:44.167Z,99.90
2023-04-10T06:40:16.194Z,99.90
2023-04-10T06:42:47.145Z,99.90
2023-04-10T06:45:18.149Z,99.90
2023-04-10T06:47:49.028Z,99.90
2023-04-10T06:50:20.297Z,99.90
2023-04-10T06:52:53.173Z,99.90
2023-04-10T06:55:24.046Z,99.90
2023-04-10T06:57:56.471Z,99.90
2023-04-10T07:00:27.443Z,99.90
2023-04-10T07:02:58.443Z,99.90
2023-04-10T07:05:29.411Z,99.90
2023-04-10T07:08:00.584Z,99.90
2023-04-10T07:10:31.578Z,99.90
2023-04-10T07:13:02.928Z,99.90
2023-04-10T07:15:33.948Z,99.90
2023-04-10T07:18:06.360Z,99.90
2023-04-10T07:20:37.351Z,99.90
2023-04-10T07:23:08.220Z,99.90
2023-04-10T07:25:39.159Z,99.90
2023-04-10T07:28:10.163Z,99.90
2023-04-10T07:30:41.206Z,99.90
2023-04-10T07:33:12.313Z,99.90
2023-04-10T07:35:43.583Z,99.90
2023-04-10T07:38:14.470Z,99.90
2023-04-10T07:40:45.652Z,99.90
2023-04-10T07:43:16.828Z,99.90
2023-04-10T07:45:48.314Z,99.90
2023-04-10T07:48:19.673Z,99.90
2023-04-10T07:50:50.679Z,99.90
2023-04-10T07:53:21.611Z,99.90
2023-04-10T07:55:53.566Z,99.90
2023-04-10T07:58:24.499Z,99.90
2023-04-10T08:00:55.624Z,99.90
2023-04-10T08:03:26.926Z,99.90
2023-04-10T08:05:57.893Z,99.90
2023-04-10T08:08:29.252Z,99.90
2023-04-10T08:11:00.138Z,99.90
2023-04-10T08:13:31.045Z,99.90
2023-04-10T08:16:02.757Z,99.90
2023-04-10T08:18:34.034Z,99.90
2023-04-10T08:21:05.702Z,99.10
2023-04-10T08:23:36.575Z,98.70
2023-04-10T08:26:07.743Z,98.60
2023-04-10T08:28:38.724Z,98.40
2023-04-10T08:31:09.598Z,97.60
2023-04-10T08:33:40.638Z,98.10
2023-04-10T08:36:13.014Z,97.80
2023-04-10T08:38:45.192Z,97.80
2023-04-10T08:41:18.579Z,96.70
2023-04-10T08:43:50.600Z,95.70
2023-04-10T08:46:26.140Z,95.10
2023-04-10T08:49:05.626Z,94.70
2023-04-10T08:51:51.276Z,94.30
2023-04-10T08:54:33.908Z,93.50
2023-04-10T08:57:08.559Z,93.10
2023-04-10T08:59:40.686Z,92.50
2023-04-10T09:02:11.744Z,92.80
2023-04-10T09:04:50.457Z,92.50
2023-04-10T09:07:23.229Z,92.40
2023-04-10T09:09:54.113Z,91.40
2023-04-10T09:12:24.990Z,91.70
2023-04-10T09:14:57.380Z,91.40
2023-04-10T09:17:28.252Z,91.10
2023-04-10T09:19:59.211Z,90.90
2023-04-10T09:22:35.672Z,90.20
2023-04-10T09:25:07.241Z,90.20
2023-04-10T09:27:40.259Z,90.30
2023-04-10T09:30:11.792Z,90.00
2023-04-10T09:32:45.797Z,88.80
2023-04-10T09:35:16.862Z,89.00
2023-04-10T09:37:47.924Z,89.20
2023-04-10T09:40:24.842Z,87.30
2023-04-10T09:42:57.048Z,86.30
2023-04-10T09:45:54.446Z,86.00
2023-04-10T09:48:26.868Z,86.70
2023-04-10T09:50:57.870Z,85.90
2023-04-10T09:53:29.636Z,85.40
2023-04-10T09:56:01.311Z,84.30
2023-04-10T09:58:32.351Z,83.70
2023-04-10T10:01:03.305Z,82.30
2023-04-10T10:03:34.426Z,82.50
2023-04-10T10:06:06.078Z,82.70
2023-04-10T10:08:37.106Z,82.10
2023-04-10T10:11:11.383Z,82.30
2023-04-10T10:13:58.357Z,81.00
2023-04-10T10:16:52.753Z,81.40
2023-04-10T10:19:31.454Z,80.70
2023-04-10T10:22:03.160Z,78.40
2023-04-10T10:24:36.466Z,78.50
2023-04-10T10:27:10.557Z,78.30
2023-04-10T10:29:44.389Z,79.80
2023-04-10T10:32:17.945Z,76.90
2023-04-10T10:34:53.245Z,78.00
2023-04-10T10:37:24.339Z,78.80
2023-04-10T10:40:12.970Z,76.50
2023-04-10T10:42:55.648Z,76.60
2023-04-10T10:45:36.685Z,76.20
2023-04-10T10:48:08.214Z,74.40
2023-04-10T10:50:57.499Z,74.20
2023-04-10T10:53:45.367Z,74.10
2023-04-10T10:56:19.231Z,72.20
2023-04-10T10:58:57.627Z,73.30
2023-04-10T11:01:28.838Z,71.80
2023-04-10T11:04:00.270Z,71.20
2023-04-10T11:06:51.304Z,71.80
2023-04-10T11:09:49.181Z,70.00
2023-04-10T11:12:24.208Z,70.60
2023-04-10T11:15:05.141Z,68.80
2023-04-10T11:17:54.476Z,67.70
2023-04-10T11:20:27.503Z,66.50
2023-04-10T11:23:11.975Z,65.30
2023-04-10T11:25:52.737Z,64.00
2023-04-10T11:28:35.574Z,62.50
2023-04-10T11:31:23.342Z,62.20
2023-04-10T11:34:00.322Z,62.40
2023-04-10T11:36:32.939Z,63.00
2023-04-10T11:39:16.035Z,61.80
2023-04-10T11:41:52.530Z,62.90
2023-04-10T11:44:31.869Z,59.10
2023-04-10T11:47:02.874Z,59.90
2023-04-10T11:49:34.968Z,61.30
2023-04-10T11:52:06.078Z,58.90
2023-04-10T11:54:37.785Z,57.50
2023-04-10T11:57:09.935Z,58.10
2023-04-10T11:59:41.769Z,58.10
2023-04-10T12:02:15.280Z,58.70
2023-04-10T12:04:46.798Z,56.80
2023-04-10T12:07:17.920Z,57.40
2023-04-10T12:09:57.457Z,57.20
2023-04-10T12:12:37.991Z,54.90
2023-04-10T12:15:29.483Z,54.00
2023-04-10T12:18:00.954Z,52.40
2023-04-10T12:20:32.333Z,51.90
2023-04-10T12:23:03.382Z,52.30
2023-04-10T12:25:35.233Z,50.20
2023-04-10T12:28:06.902Z,49.80
2023-04-10T12:30:37.856Z,49.90
2023-04-10T12:33:09.750Z,50.10
2023-04-10T12:35:44.384Z,51.30
2023-04-10T12:38:15.698Z,49.70
2023-04-10T12:41:02.242Z,49.70
2023-04-10T12:43:35.005Z,49.40
2023-04-10T12:46:08.212Z,50.10
2023-04-10T12:48:39.362Z,50.50
2023-04-10T12:51:10.279Z,51.70
2023-04-10T12:53:47.066Z,50.30
2023-04-10T12:56:20.338Z,52.00
2023-04-10T12:59:07.472Z,49.80
2023-04-10T13:01:39.767Z,49.80
2023-04-10T13:04:10.814Z,51.80
2023-04-10T13:06:49.213Z,50.20
2023-04-10T13:09:20.276Z,51.10
2023-04-10T13:11:52.179Z,50.00
2023-04-10T13:14:23.989Z,49.80
2023-04-10T13:16:54.884Z,50.00
2023-04-10T13:19:26.464Z,50.90
2023-04-10T13:21:57.351Z,50.90
2023-04-10T13:24:28.305Z,50.60
2023-04-10T13:26:59.243Z,50.80
2023-04-10T13:29:30.423Z,50.80
2023-04-10T13:32:03.853Z,51.60
2023-04-10T13:34:35.620Z,52.10
2023-04-10T13:37:06.576Z,50.50
2023-04-10T13:39:37.476Z,51.30
2023-04-10T13:42:08.309Z,49.50
2023-04-10T13:44:39.215Z,50.60
2023-04-10T13:47:10.228Z,49.10
2023-04-10T13:49:41.232Z,50.10
2023-04-10T13:52:12.078Z,50.80
2023-04-10T13:54:42.976Z,50.60
2023-04-10T13:57:13.849Z,50.10
2023-04-10T13:59:44.738Z,51.10
2023-04-10T14:02:15.757Z,50.80
2023-04-10T14:04:47.519Z,50.20
2023-04-10T14:07:19.840Z,49.90
2023-04-10T14:09:50.835Z,50.50
2023-04-10T14:12:23.189Z,50.60
2023-04-10T14:14:54.183Z,50.20
2023-04-10T14:17:25.154Z,50.90
2023-04-10T14:19:56.109Z,51.10
2023-04-10T14:22:26.958Z,50.80
2023-04-10T14:25:09.431Z,50.50
2023-04-10T14:27:43.407Z,50.90
2023-04-10T14:30:14.463Z,50.80
2023-04-10T14:32:45.472Z,50.30
2023-04-10T14:35:16.423Z,51.10
2023-04-10T14:37:47.259Z,49.90
2023-04-10T14:40:18.142Z,50.40
2023-04-10T14:42:49.020Z,50.00
2023-04-10T14:45:19.997Z,51.00
2023-04-10T14:47:50.937Z,50.10
2023-04-10T14:50:21.876Z,50.80
2023-04-10T14:52:52.996Z,51.70
2023-04-10T14:55:25.244Z,51.80
2023-04-10T14:57:58.238Z,51.00
2023-04-10T15:00:29.819Z,51.10
2023-04-10T15:03:01.106Z,50.50
2023-04-10T15:05:32.452Z,51.70
2023-04-10T15:08:03.363Z,50.90
2023-04-10T15:10:34.215Z,51.00
2023-04-10T15:13:06.053Z,51.40
2023-04-10T15:15:36.948Z,51.70
2023-04-10T15:18:07.854Z,51.10
2023-04-10T15:20:39.005Z,50.90
2023-04-10T15:23:11.468Z,50.80
2023-04-10T15:25:42.329Z,50.40
2023-04-10T15:28:13.181Z,50.90
2023-04-10T15:30:45.003Z,51.30
2023-04-10T15:33:17.181Z,51.10
2023-04-10T15:35:49.811Z,51.50
2023-04-10T15:38:20.778Z,51.30
2023-04-10T15:40:52.135Z,51.40
2023-04-10T15:43:23.098Z,51.30
2023-04-10T15:45:53.992Z,51.80
2023-04-10T15:48:24.977Z,51.80
2023-04-10T15:50:55.969Z,52.20
2023-04-10T15:53:26.854Z,52.90
2023-04-10T15:55:57.926Z,52.20
2023-04-10T15:58:29.682Z,52.20
2023-04-10T16:01:01.323Z,52.90
2023-04-10T16:03:32.357Z,53.60
2023-04-10T16:06:03.565Z,54.40
2023-04-10T16:08:34.499Z,54.90
2023-04-10T16:11:05.874Z,54.70
2023-04-10T16:13:39.460Z,54.40
2023-04-10T16:16:16.262Z,54.90
2023-04-10T16:18:47.458Z,54.90
2023-04-10T16:21:20.644Z,55.20
2023-04-10T16:23:51.656Z,55.40
2023-04-10T16:26:22.624Z,55.50
2023-04-10T16:28:53.799Z,56.10
2023-04-10T16:31:25.036Z,56.20
2023-04-10T16:33:56.599Z,56.30
2023-04-10T16:36:27.462Z,56.20
2023-04-10T16:38:58.388Z,56.40
2023-04-10T16:41:29.342Z,56.80
2023-04-10T16:44:00.257Z,56.80
2023-04-10T16:46:33.083Z,56.90
2023-04-10T16:49:04.291Z,57.00
2023-04-10T16:51:35.255Z,57.90
2023-04-10T16:54:06.953Z,57.00
2023-04-10T16:56:37.843Z,57.00
2023-04-10T16:59:09.175Z,57.30
2023-04-10T17:01:40.180Z,57.00
2023-04-10T17:04:11.742Z,57.00
2023-04-10T17:06:42.834Z,56.90
2023-04-10T17:09:13.719Z,57.70
2023-04-10T17:11:44.577Z,57.20
2023-04-10T17:14:16.111Z,57.40
2023-04-10T17:16:47.024Z,57.90
2023-04-10T17:19:17.984Z,58.40
2023-04-10T17:21:48.861Z,59.00
2023-04-10T17:24:19.762Z,58.80
2023-04-10T17:26:50.721Z,58.80
2023-04-10T17:29:21.665Z,58.80
2023-04-10T17:31:52.781Z,58.90
2023-04-10T17:34:23.791Z,59.60
2023-04-10T17:36:54.675Z,59.40
2023-04-10T17:39:27.162Z,59.30
2023-04-10T17:41:58.032Z,59.00
2023-04-10T17:44:28.878Z,59.40
2023-04-10T17:46:59.782Z,59.70
2023-04-10T17:49:30.979Z,59.90
2023-04-10T17:52:01.896Z,60.00
2023-04-10T17:54:34.627Z,60.10
2023-04-10T17:57:05.677Z,60.50
2023-04-10T17:59:36.565Z,60.60
2023-04-10T18:02:07.444Z,61.00
2023-04-10T18:04:38.355Z,61.50
2023-04-10T18:07:09.173Z,61.40
2023-04-10T18:09:40.136Z,61.60
2023-04-10T18:12:11.052Z,61.90
2023-04-10T18:14:42.885Z,62.40
2023-04-10T18:17:14.916Z,62.30
2023-04-10T18:19:45.876Z,62.50
2023-04-10T18:22:17.250Z,62.70
2023-04-10T18:24:49.052Z,63.20
2023-04-10T18:27:19.959Z,63.20
2023-04-10T18:29:51.292Z,62.90
2023-04-10T18:32:22.227Z,63.00
2023-04-10T18:34:53.144Z,63.00
2023-04-10T18:37:24.002Z,62.60
2023-04-10T18:39:56.922Z,62.60
2023-04-10T18:42:29.704Z,63.20
2023-04-10T18:45:00.556Z,63.20
2023-04-10T18:47:31.586Z,63.20
2023-04-10T18:50:02.855Z,62.70
2023-04-10T18:52:33.698Z,62.80
2023-04-10T18:55:05.082Z,62.50
2023-04-10T18:57:35.948Z,62.30
2023-04-10T19:00:08.296Z,61.10
2023-04-10T19:02:39.265Z,60.30
2023-04-10T19:05:14.666Z,60.00
2023-04-10T19:07:56.512Z,60.00
2023-04-10T19:10:34.370Z,59.80
2023-04-10T19:13:05.350Z,59.80
2023-04-10T19:15:45.412Z,59.80
2023-04-10T19:18:16.667Z,59.60
2023-04-10T19:20:52.182Z,59.80
2023-04-10T19:23:23.932Z,59.60
2023-04-10T19:25:55.312Z,59.80
2023-04-10T19:28:26.381Z,60.30
2023-04-10T19:30:57.282Z,60.50
2023-04-10T19:33:28.389Z,60.10
2023-04-10T19:35:59.291Z,60.60
2023-04-10T19:38:32.067Z,59.90
2023-04-10T19:41:02.905Z,60.10
2023-04-10T19:43:33.840Z,60.70
2023-04-10T19:46:04.833Z,60.90
2023-04-10T19:48:35.956Z,61.40
2023-04-10T19:51:06.980Z,60.80
2023-04-10T19:53:38.343Z,59.80
2023-04-10T19:56:09.503Z,59.70
2023-04-10T19:58:41.655Z,59.70
2023-04-10T20:01:13.515Z,59.80
2023-04-10T20:03:45.267Z,60.40
2023-04-10T20:06:16.377Z,62.30
2023-04-10T20:08:47.245Z,61.20
2023-04-10T20:11:18.150Z,60.00
2023-04-10T20:13:49.090Z,60.40
2023-04-10T20:16:19.975Z,61.00
2023-04-10T20:18:53.099Z,60.40
2023-04-10T20:21:24.265Z,60.60
2023-04-10T20:23:57.410Z,61.30
2023-04-10T20:26:28.336Z,61.50
2023-04-10T20:29:00.479Z,62.20
2023-04-10T20:31:34.094Z,63.10
2023-04-10T20:34:05.745Z,63.10
2023-04-10T20:36:36.644Z,64.20
2023-04-10T20:39:07.599Z,65.30
2023-04-10T20:41:38.544Z,66.10
2023-04-10T20:44:09.501Z,66.30
2023-04-10T20:46:40.712Z,66.40
2023-04-10T20:49:15.775Z,67.00
2023-04-10T20:51:47.335Z,68.10
2023-04-10T20:54:19.099Z,68.50
2023-04-10T20:56:50.338Z,69.00
2023-04-10T20:59:21.271Z,69.40
2023-04-10T21:01:52.594Z,69.90
2023-04-10T21:04:23.627Z,70.10
2023-04-10T21:06:54.519Z,70.30
2023-04-10T21:09:25.489Z,70.40
2023-04-10T21:11:57.710Z,70.70
2023-04-10T21:14:28.582Z,70.70
2023-04-10T21:16:59.488Z,70.70
2023-04-10T21:19:30.621Z,70.90
2023-04-10T21:22:01.530Z,70.70
2023-04-10T21:24:32.691Z,70.70
2023-04-10T21:27:04.546Z,70.60
2023-04-10T21:29:35.498Z,70.60
2023-04-10T21:32:06.510Z,70.40
2023-04-10T21:34:37.454Z,70.40
2023-04-10T21:37:08.300Z,70.50
2023-04-10T21:39:42.092Z,70.40
2023-04-10T21:42:12.919Z,70.50
2023-04-10T21:44:43.782Z,70.50
2023-04-10T21:47:14.637Z,70.60
2023-04-10T21:49:45.503Z,70.60
2023-04-10T21:52:17.176Z,70.40
2023-04-10T21:54:48.087Z,70.70
2023-04-10T21:57:19.013Z,70.70
2023-04-10T21:59:49.933Z,70.80
2023-04-10T22:02:20.833Z,71.00
2023-04-10T22:04:54.762Z,71.20
2023-04-10T22:07:25.969Z,71.30
2023-04-10T22:09:56.855Z,71.30
2023-04-10T22:12:27.723Z,71.50
2023-04-10T22:14:58.585Z,71.50
2023-04-10T22:17:29.544Z,71.60
2023-04-10T22:20:00.676Z,71.80
2023-04-10T22:22:31.769Z,72.20
2023-04-10T22:25:02.919Z,72.10
2023-04-10T22:27:33.817Z,72.50
2023-04-10T22:30:05.486Z,72.80
2023-04-10T22:32:36.448Z,72.80
2023-04-10T22:35:08.295Z,73.00
2023-04-10T22:37:39.167Z,73.30
2023-04-10T22:40:10.655Z,73.80
2023-04-10T22:42:42.676Z,73.80
2023-04-10T22:45:13.572Z,73.90
2023-04-10T22:47:44.520Z,74.00
2023-04-10T22:50:15.527Z,73.80
2023-04-10T22:52:46.382Z,74.00
2023-04-10T22:55:17.372Z,74.30
2023-04-10T22:57:49.474Z,74.10
2023-04-10T23:00:20.382Z,73.90
2023-04-10T23:02:51.464Z,74.10
2023-04-10T23:05:22.413Z,74.30
2023-04-10T23:07:53.822Z,74.70
2023-04-10T23:10:25.024Z,75.00
2023-04-10T23:12:56.100Z,75.30
2023-04-10T23:15:27.151Z,75.50
2023-04-10T23:17:58.171Z,75.70
2023-04-10T23:20:29.326Z,76.00
2023-04-10T23:23:00.504Z,76.20
2023-04-10T23:25:31.588Z,76.40
2023-04-10T23:28:03.676Z,76.60
2023-04-10T23:30:36.661Z,76.70
2023-04-10T23:33:07.794Z,76.80
2023-04-10T23:35:38.818Z,76.80
2023-04-10T23:38:09.768Z,76.90
2023-04-10T23:40:40.649Z,77.10
2023-04-10T23:43:11.784Z,77.30
2023-04-10T23:45:42.860Z,77.60
2023-04-10T23:48:14.014Z,77.90
2023-04-10T23:50:45.157Z,78.30
2023-04-10T23:53:16.528Z,78.70
2023-04-10T23:55:47.566Z,78.60
2023-04-10T23:58:18.663Z,78.60
